Time;durP1;ratioP1;P1;durP2;ratioP2;P2;SDS_P1;SDS_P2;PMS_P1;PMS_P2;Temp;Humidity;BMP_temperature;BMP_pressure;BME280_temperature;BME280_humidity;BME280_pressure;Samples;Min_cycle;Max_cycle;Signal;HPM_P1;HPM_P2
2023/05/14 00:02:00;;;;;;;8.65;7.75;;;15.40;63.60;;;;;;5027600;28;20037;-66
2023/05/14 00:04:26;;;;;;;9.50;8.02;;;15.40;63.10;;;;;;4980557;28;20046;-66
2023/05/14 00:06:51;;;;;;;10.77;8.23;;;15.40;63.10;;;;;;5012842;28;20100;-66
2023/05/14 00:09:17;;;;;;;11.85;7.57;;;15.40;63.10;;;;;;5014936;28;20041;-66
2023/05/14 00:11:43;;;;;;;8.82;7.40;;;15.40;63.10;;;;;;5031430;28;20106;-66
2023/05/14 00:14:09;;;;;;;9.68;7.28;;;15.40;63.10;;;;;;5031484;28;20484;-66
2023/05/14 00:16:34;;;;;;;10.13;7.53;;;15.40;63.10;;;;;;5017920;28;20120;-66
2023/05/14 00:19:00;;;;;;;9.55;7.63;;;15.40;63.10;;;;;;5031312;28;20037;-66
2023/05/14 00:21:26;;;;;;;11.43;8.15;;;15.30;63.10;;;;;;5030432;28;20038;-66
2023/05/14 00:23:51;;;;;;;10.15;8.02;;;15.30;63.20;;;;;;5014844;28;20045;-66
2023/05/14 00:26:17;;;;;;;11.90;8.52;;;15.30;63.10;;;;;;5030998;28;20080;-65
2023/05/14 00:28:43;;;;;;;12.80;8.90;;;15.30;63.10;;;;;;5012091;28;20049;-66
2023/05/14 00:31:08;;;;;;;11.07;9.80;;;15.30;63.20;;;;;;5019383;28;20061;-66
2023/05/14 00:33:34;;;;;;;10.73;9.35;;;15.30;63.20;;;;;;4996702;28;20041;-66
2023/05/14 00:36:00;;;;;;;12.75;10.07;;;15.30;63.20;;;;;;4995178;28;20042;-66
2023/05/14 00:38:27;;;;;;;10.95;8.95;;;15.30;63.30;;;;;;5026781;28;20045;-66
2023/05/14 00:40:53;;;;;;;9.65;8.15;;;15.30;63.40;;;;;;5024226;28;20042;-66
2023/05/14 00:43:19;;;;;;;12.23;8.57;;;15.20;63.40;;;;;;4980095;28;20073;-66
2023/05/14 00:45:47;;;;;;;9.75;7.55;;;15.30;63.50;;;;;;5016780;28;20060;-66
2023/05/14 00:48:12;;;;;;;11.20;7.90;;;15.20;63.40;;;;;;5026837;28;20092;-66
2023/05/14 00:50:38;;;;;;;13.40;9.55;;;15.20;63.40;;;;;;5020781;28;20034;-66
2023/05/14 00:53:09;;;;;;;8.95;7.28;;;15.20;63.50;;;;;;5035341;28;20117;-66
2023/05/14 00:55:40;;;;;;;9.40;8.18;;;15.20;63.50;;;;;;5034941;28;20071;-66
2023/05/14 00:58:13;;;;;;;10.80;7.90;;;15.20;63.50;;;;;;5034707;28;20071;-66
2023/05/14 01:00:40;;;;;;;13.13;9.82;;;15.10;63.50;;;;;;5030821;28;20064;-66
2023/05/14 01:03:07;;;;;;;12.80;9.57;;;15.10;63.50;;;;;;5019033;28;20052;-65
2023/05/14 01:05:59;;;;;;;10.88;8.35;;;15.10;63.60;;;;;;5012462;28;20080;-66
2023/05/14 01:08:54;;;;;;;12.07;8.43;;;15.10;63.40;;;;;;5032993;28;20049;-66
2023/05/14 01:11:32;;;;;;;;;;;15.10;63.50;;;;;;5031213;28;20038;-66
2023/05/14 01:14:04;;;;;;;8.20;6.80;;;15.00;62.90;;;;;;5032617;28;19960;-66
2023/05/14 01:16:32;;;;;;;10.52;7.63;;;15.00;63.40;;;;;;5034440;28;20041;-66
2023/05/14 01:19:00;;;;;;;11.75;9.00;;;15.00;63.60;;;;;;5032806;28;20092;-66
2023/05/14 01:21:36;;;;;;;10.60;7.45;;;15.00;63.70;;;;;;5030837;28;20175;-66
2023/05/14 01:24:03;;;;;;;9.95;6.88;;;15.00;63.80;;;;;;5033603;28;20061;-66
2023/05/14 01:26:30;;;;;;;8.75;7.00;;;14.90;63.90;;;;;;5034377;28;20050;-66
2023/05/14 01:29:01;;;;;;;11.90;7.70;;;14.90;63.90;;;;;;5014892;28;20128;-66
2023/05/14 01:31:31;;;;;;;9.57;6.90;;;14.90;64.00;;;;;;5023328;28;20141;-66
2023/05/14 01:33:58;;;;;;;9.13;6.88;;;14.80;64.10;;;;;;5018829;28;20049;-66
2023/05/14 01:36:24;;;;;;;10.38;7.25;;;14.80;64.20;;;;;;5026717;28;20038;-66
2023/05/14 01:38:50;;;;;;;7.38;6.47;;;14.80;64.10;;;;;;4999741;28;20397;-66
2023/05/14 01:41:18;;;;;;;8.68;7.53;;;14.80;64.10;;;;;;5023290;28;20069;-66
2023/05/14 01:43:44;;;;;;;9.43;6.80;;;14.80;64.20;;;;;;5026951;28;20481;-66
2023/05/14 01:46:10;;;;;;;9.68;6.72;;;14.80;64.20;;;;;;5014339;28;20535;-66
2023/05/14 01:48:36;;;;;;;8.80;6.93;;;14.70;64.20;;;;;;5015415;28;20050;-66
2023/05/14 01:51:03;;;;;;;7.97;7.00;;;14.70;64.20;;;;;;5020099;28;20049;-66
2023/05/14 01:53:28;;;;;;;10.18;6.90;;;14.70;64.30;;;;;;5005471;28;20493;-66
2023/05/14 01:55:54;;;;;;;8.35;7.07;;;14.70;64.30;;;;;;5013970;28;20081;-66
2023/05/14 01:58:20;;;;;;;8.20;6.65;;;14.60;64.30;;;;;;5025984;28;20095;-65
2023/05/14 02:00:46;;;;;;;10.55;7.43;;;14.70;64.40;;;;;;5023023;28;20045;-66
2023/05/14 02:03:11;;;;;;;7.90;6.20;;;14.60;64.40;;;;;;5014970;28;20041;-65
2023/05/14 02:05:37;;;;;;;7.47;6.70;;;14.60;64.50;;;;;;5013998;28;20041;-66
2023/05/14 02:08:03;;;;;;;8.35;6.60;;;14.60;64.50;;;;;;5013973;28;20065;-66
2023/05/14 02:10:28;;;;;;;6.75;5.82;;;14.50;64.60;;;;;;5018336;28;20116;-66
2023/05/14 02:12:55;;;;;;;10.05;6.57;;;14.50;64.60;;;;;;5033333;28;20049;-66
2023/05/14 02:15:20;;;;;;;7.88;6.55;;;14.50;64.70;;;;;;5033593;28;20100;-66
2023/05/14 02:17:46;;;;;;;7.95;6.03;;;14.50;64.70;;;;;;5025570;28;20038;-66
2023/05/14 02:20:12;;;;;;;8.35;5.85;;;14.50;64.80;;;;;;5015104;28;20121;-66
2023/05/14 02:22:40;;;;;;;7.15;5.70;;;14.40;64.80;;;;;;5017288;28;20041;-65
2023/05/14 02:25:07;;;;;;;8.68;6.57;;;14.40;64.90;;;;;;5033705;28;20120;-66
2023/05/14 02:27:33;;;;;;;9.02;6.43;;;14.40;64.90;;;;;;5031128;28;20053;-66
2023/05/14 02:30:00;;;;;;;7.80;5.55;;;14.40;64.90;;;;;;4997089;28;20100;-66
2023/05/14 02:32:27;;;;;;;7.95;5.75;;;14.40;64.90;;;;;;5032272;28;20061;-66
2023/05/14 02:34:52;;;;;;;7.40;6.05;;;14.30;65.00;;;;;;5006576;28;20038;-66
2023/05/14 02:37:18;;;;;;;7.88;5.60;;;14.30;65.00;;;;;;5014022;28;20088;-66
2023/05/14 02:39:44;;;;;;;8.05;5.30;;;14.30;65.10;;;;;;5013554;28;20053;-66
2023/05/14 02:42:09;;;;;;;7.55;5.70;;;14.30;65.30;;;;;;5029483;28;20465;-66
2023/05/14 02:44:35;;;;;;;7.88;5.93;;;14.30;65.40;;;;;;5016801;28;20128;-66
2023/05/14 02:47:01;;;;;;;7.22;5.30;;;14.20;65.40;;;;;;5002796;28;20478;-66
2023/05/14 02:49:26;;;;;;;6.55;5.40;;;14.20;65.50;;;;;;4997245;28;20050;-66
2023/05/14 02:51:55;;;;;;;7.55;5.60;;;14.20;65.60;;;;;;5017076;28;20375;-66
2023/05/14 02:54:21;;;;;;;7.45;6.25;;;14.20;65.80;;;;;;4998661;28;20041;-66
2023/05/14 02:56:47;;;;;;;6.82;5.35;;;14.10;66.00;;;;;;5032407;28;20045;-66
2023/05/14 02:59:12;;;;;;;8.38;5.93;;;14.10;66.10;;;;;;5033139;28;20128;-66
2023/05/14 03:01:38;;;;;;;7.78;5.85;;;14.10;66.30;;;;;;5004242;28;20125;-66
2023/05/14 03:04:04;;;;;;;8.60;4.80;;;14.10;66.40;;;;;;5013335;28;20478;-66
2023/05/14 03:06:30;;;;;;;8.05;5.40;;;14.00;66.40;;;;;;5012580;28;20049;-66
2023/05/14 03:08:56;;;;;;;10.40;6.40;;;14.00;66.50;;;;;;5032845;28;20574;-70
2023/05/14 03:11:21;;;;;;;8.15;4.88;;;14.00;66.70;;;;;;5024829;28;20112;-70
2023/05/14 03:13:47;;;;;;;7.57;4.90;;;14.00;66.80;;;;;;5012902;28;20038;-70
2023/05/14 03:16:13;;;;;;;6.55;5.05;;;13.90;66.80;;;;;;5012670;28;20065;-70
2023/05/14 03:18:38;;;;;;;7.63;5.43;;;13.90;66.80;;;;;;4996433;28;20155;-70
2023/05/14 03:21:04;;;;;;;6.88;5.40;;;13.90;66.80;;;;;;5019695;28;20065;-70
2023/05/14 03:23:33;;;;;;;7.50;5.25;;;13.90;66.90;;;;;;5029577;28;20489;-70
2023/05/14 03:26:00;;;;;;;7.90;5.20;;;13.90;66.90;;;;;;5032656;28;20163;-70
2023/05/14 03:28:25;;;;;;;8.10;5.47;;;13.90;67.00;;;;;;5032078;28;20485;-70
2023/05/14 03:30:51;;;;;;;6.40;5.65;;;13.90;67.10;;;;;;5023851;28;20049;-70
2023/05/14 03:33:17;;;;;;;8.30;5.40;;;13.90;67.00;;;;;;5015837;28;20099;-70
2023/05/14 03:35:43;;;;;;;8.00;4.88;;;13.90;67.10;;;;;;5032384;28;20037;-70
2023/05/14 03:38:08;;;;;;;5.85;5.18;;;13.90;67.10;;;;;;5016011;28;20060;-70
2023/05/14 03:40:34;;;;;;;7.15;5.95;;;13.90;67.10;;;;;;5025145;28;20401;-70
2023/05/14 03:43:00;;;;;;;8.52;5.40;;;13.90;67.20;;;;;;5012471;28;20144;-70
2023/05/14 03:45:27;;;;;;;7.25;5.43;;;13.80;67.20;;;;;;5026644;28;20045;-70
2023/05/14 03:47:53;;;;;;;8.57;5.20;;;13.80;67.20;;;;;;5031424;28;20049;-70
2023/05/14 03:50:18;;;;;;;7.18;5.35;;;13.80;67.20;;;;;;5029766;28;20515;-70
2023/05/14 03:52:44;;;;;;;5.40;4.68;;;13.80;67.30;;;;;;5031823;28;20122;-70
2023/05/14 03:55:10;;;;;;;7.95;5.40;;;13.80;67.30;;;;;;5031843;28;20143;-71
2023/05/14 03:57:36;;;;;;;7.05;5.35;;;13.80;67.40;;;;;;5026864;28;20061;-70
2023/05/14 04:00:03;;;;;;;7.20;5.10;;;13.80;67.40;;;;;;5031212;28;20044;-70
2023/05/14 04:02:29;;;;;;;9.75;5.30;;;13.80;67.50;;;;;;5000682;28;20095;-70
2023/05/14 04:04:54;;;;;;;7.72;5.88;;;13.80;67.60;;;;;;5011377;28;20484;-70
2023/05/14 04:07:20;;;;;;;7.47;5.55;;;13.80;67.70;;;;;;5015095;28;20077;-70
2023/05/14 04:09:46;;;;;;;6.28;5.30;;;13.70;67.60;;;;;;5011888;28;20041;-70
2023/05/14 04:12:12;;;;;;;5.95;5.07;;;13.70;67.70;;;;;;5028258;28;20037;-70
2023/05/14 04:14:38;;;;;;;6.43;5.70;;;13.70;67.70;;;;;;5025216;28;20081;-71
2023/05/14 04:17:03;;;;;;;5.68;5.07;;;13.70;67.80;;;;;;5021898;28;20061;-70
2023/05/14 04:19:29;;;;;;;6.60;5.07;;;13.70;67.80;;;;;;4995660;28;20489;-70
2023/05/14 04:21:55;;;;;;;9.65;5.80;;;13.70;67.80;;;;;;5024375;28;20042;-70
2023/05/14 04:24:20;;;;;;;6.45;5.07;;;13.70;67.90;;;;;;5014792;28;20088;-70
2023/05/14 04:26:46;;;;;;;7.75;5.30;;;13.70;67.90;;;;;;5031643;28;20107;-70
2023/05/14 04:29:12;;;;;;;7.07;5.10;;;13.70;68.00;;;;;;5021650;28;20049;-70
2023/05/14 04:31:38;;;;;;;8.20;5.07;;;13.70;68.10;;;;;;5013344;28;20056;-70
2023/05/14 04:34:04;;;;;;;8.23;5.65;;;13.60;68.10;;;;;;5017537;28;20389;-70
2023/05/14 04:36:30;;;;;;;6.05;5.43;;;13.60;68.20;;;;;;5010810;28;20037;-70
2023/05/14 04:38:56;;;;;;;7.65;5.53;;;13.60;68.30;;;;;;4997935;28;20451;-70
2023/05/14 04:41:21;;;;;;;7.70;6.40;;;13.60;68.30;;;;;;5030402;28;20120;-71
2023/05/14 04:43:49;;;;;;;10.93;6.35;;;13.60;68.40;;;;;;5014445;28;20184;-70
2023/05/14 04:46:15;;;;;;;8.15;6.88;;;13.60;68.50;;;;;;5027972;28;20073;-71
2023/05/14 04:48:41;;;;;;;7.00;6.20;;;13.60;68.70;;;;;;5011471;28;20564;-70
2023/05/14 04:51:07;;;;;;;8.35;5.93;;;13.60;68.80;;;;;;4994966;28;20054;-70
2023/05/14 04:53:33;;;;;;;11.95;7.55;;;13.60;69.00;;;;;;5013083;28;20045;-70
2023/05/14 04:55:58;;;;;;;12.77;7.50;;;13.70;69.40;;;;;;5011386;28;20048;-70
2023/05/14 04:58:26;;;;;;;9.90;6.40;;;13.70;69.60;;;;;;5029652;28;20045;-70
2023/05/14 05:00:52;;;;;;;13.30;8.43;;;13.70;69.80;;;;;;5027754;28;20091;-70
2023/05/14 05:03:17;;;;;;;19.90;11.30;;;13.70;70.00;;;;;;5011409;28;20042;-70
2023/05/14 05:05:43;;;;;;;13.35;7.88;;;13.70;70.50;;;;;;5024865;28;20049;-70
2023/05/14 05:08:10;;;;;;;13.25;9.05;;;13.70;70.70;;;;;;5014299;28;20045;-70
2023/05/14 05:10:35;;;;;;;15.30;11.10;;;13.70;71.00;;;;;;5030817;28;20079;-70
2023/05/14 05:13:01;;;;;;;21.17;12.82;;;13.70;71.60;;;;;;5029781;28;20049;-71
2023/05/14 05:15:27;;;;;;;13.85;10.40;;;13.70;72.20;;;;;;5032222;28;20115;-70
2023/05/14 05:17:52;;;;;;;22.40;12.73;;;13.70;72.50;;;;;;5028003;28;20087;-70
2023/05/14 05:20:18;;;;;;;15.70;10.93;;;13.60;72.90;;;;;;5014662;28;20075;-70
2023/05/14 05:22:44;;;;;;;15.05;10.95;;;13.60;73.10;;;;;;5030645;28;20385;-70
2023/05/14 05:25:11;;;;;;;14.15;9.63;;;13.60;73.30;;;;;;5014319;28;20059;-70
2023/05/14 05:27:37;;;;;;;14.98;11.05;;;13.60;73.70;;;;;;5012766;28;20045;-70
2023/05/14 05:30:03;;;;;;;14.68;9.15;;;13.60;74.00;;;;;;5012988;28;20034;-70
2023/05/14 05:32:30;;;;;;;12.85;9.05;;;13.60;74.20;;;;;;5023131;28;20057;-70
2023/05/14 05:34:56;;;;;;;12.93;9.38;;;13.60;74.30;;;;;;5021866;28;20179;-70
2023/05/14 05:37:21;;;;;;;13.20;8.85;;;13.60;74.30;;;;;;5016868;28;20058;-70
2023/05/14 05:39:47;;;;;;;11.20;9.35;;;13.60;74.40;;;;;;5015531;28;20402;-70
2023/05/14 05:42:13;;;;;;;14.90;9.85;;;13.60;74.60;;;;;;5014524;28;20128;-71
2023/05/14 05:44:39;;;;;;;19.58;9.82;;;13.70;75.30;;;;;;5008611;28;20037;-70
2023/05/14 05:47:05;;;;;;;15.90;8.57;;;13.80;75.90;;;;;;5017067;28;20037;-70
2023/05/14 05:49:30;;;;;;;14.38;8.20;;;14.00;76.40;;;;;;5031277;28;20038;-70
2023/05/14 05:51:56;;;;;;;17.50;9.27;;;14.20;76.20;;;;;;5049979;28;20094;-71
2023/05/14 05:54:23;;;;;;;14.60;9.00;;;14.30;76.00;;;;;;5016586;28;20049;-70
2023/05/14 05:56:49;;;;;;;14.13;8.55;;;14.50;75.80;;;;;;5033041;28;20047;-70
2023/05/14 05:59:15;;;;;;;12.85;8.15;;;14.70;75.60;;;;;;5033646;28;20492;-70
2023/05/14 06:01:42;;;;;;;11.30;7.53;;;14.90;75.10;;;;;;5034142;28;20044;-70
2023/05/14 06:04:08;;;;;;;12.25;7.90;;;15.10;74.70;;;;;;5027063;28;20041;-70
2023/05/14 06:06:34;;;;;;;13.13;7.90;;;15.20;74.20;;;;;;5019430;28;20489;-70
2023/05/14 06:09:00;;;;;;;12.77;7.13;;;15.30;73.80;;;;;;5014674;28;20038;-70
2023/05/14 06:11:27;;;;;;;12.38;7.50;;;15.40;73.40;;;;;;5016743;28;20045;-70
2023/05/14 06:13:54;;;;;;;12.52;7.53;;;15.40;73.00;;;;;;5033763;28;20049;-71
2023/05/14 06:16:19;;;;;;;12.05;7.10;;;15.50;72.90;;;;;;5013029;28;20045;-71
2023/05/14 06:18:45;;;;;;;9.85;7.07;;;15.50;72.50;;;;;;5029419;28;20091;-71
2023/05/14 06:21:11;;;;;;;15.35;7.72;;;15.60;72.30;;;;;;5015621;28;20037;-71
2023/05/14 06:23:37;;;;;;;12.98;7.88;;;15.60;72.10;;;;;;5024866;28;20578;-70
2023/05/14 06:26:03;;;;;;;11.60;8.15;;;15.60;71.90;;;;;;5029633;28;20045;-70
2023/05/14 06:28:28;;;;;;;17.92;8.23;;;15.60;71.90;;;;;;5013574;28;20079;-70
2023/05/14 06:30:54;;;;;;;12.82;7.57;;;15.60;71.80;;;;;;5053234;28;20060;-70
2023/05/14 06:33:28;;;;;;;14.13;7.60;;;15.60;71.90;;;;;;5024274;28;20049;-70
2023/05/14 06:35:54;;;;;;;14.63;8.32;;;15.60;72.10;;;;;;4998947;28;20088;-70
2023/05/14 06:38:20;;;;;;;11.02;8.05;;;15.60;72.20;;;;;;5050106;28;20045;-70
2023/05/14 06:40:45;;;;;;;12.75;8.60;;;15.60;72.30;;;;;;5039216;28;20401;-70
2023/05/14 06:43:11;;;;;;;15.30;10.50;;;15.70;72.40;;;;;;5016748;28;20037;-71
2023/05/14 06:45:37;;;;;;;12.10;8.35;;;15.60;72.70;;;;;;5033377;28;20048;-70
2023/05/14 06:48:03;;;;;;;15.23;8.23;;;15.60;72.90;;;;;;5033085;28;20370;-71
2023/05/14 06:50:29;;;;;;;14.07;10.05;;;15.70;73.00;;;;;;5008270;28;20073;-72
2023/05/14 06:52:55;;;;;;;11.27;8.85;;;15.70;73.10;;;;;;5025572;28;20056;-71
2023/05/14 06:55:21;;;;;;;14.27;9.18;;;15.70;73.20;;;;;;5007603;28;20041;-70
2023/05/14 06:57:47;;;;;;;19.02;10.25;;;15.80;73.20;;;;;;5007202;28;20413;-70
2023/05/14 07:00:13;;;;;;;15.32;9.02;;;15.80;73.30;;;;;;5025438;28;20486;-71
2023/05/14 07:02:39;;;;;;;17.08;9.85;;;15.90;73.30;;;;;;5023178;28;20041;-71
2023/05/14 07:05:05;;;;;;;14.35;9.15;;;15.90;73.30;;;;;;5024870;28;20069;-70
2023/05/14 07:07:31;;;;;;;15.38;8.98;;;15.90;73.40;;;;;;5022587;28;20049;-71
2023/05/14 07:09:56;;;;;;;13.80;8.93;;;16.00;73.40;;;;;;5022957;28;20065;-71
2023/05/14 07:12:22;;;;;;;14.95;9.52;;;16.00;73.80;;;;;;5023501;28;20037;-71
2023/05/14 07:14:48;;;;;;;14.18;9.52;;;16.10;74.00;;;;;;4994002;28;20067;-71
2023/05/14 07:17:14;;;;;;;13.15;8.77;;;16.20;73.30;;;;;;4991578;28;20042;-71
2023/05/14 07:19:39;;;;;;;14.27;8.88;;;16.20;72.90;;;;;;5025171;28;20045;-71
2023/05/14 07:22:05;;;;;;;14.07;8.73;;;16.30;73.10;;;;;;5006535;28;20041;-70
2023/05/14 07:24:31;;;;;;;14.50;8.75;;;16.40;72.80;;;;;;5020912;28;20037;-71
2023/05/14 07:26:56;;;;;;;12.02;7.75;;;16.40;72.80;;;;;;5019797;28;20038;-72
2023/05/14 07:29:24;;;;;;;11.52;7.47;;;16.50;72.70;;;;;;5022051;28;20412;-72
2023/05/14 07:31:50;;;;;;;17.23;9.10;;;16.60;72.40;;;;;;5021911;28;20120;-70
2023/05/14 07:34:15;;;;;;;14.90;8.43;;;16.70;72.00;;;;;;5022422;28;20045;-70
2023/05/14 07:36:41;;;;;;;11.75;7.43;;;16.70;71.60;;;;;;5006935;28;20088;-70
2023/05/14 07:39:07;;;;;;;15.25;8.35;;;16.80;71.30;;;;;;5005434;28;20136;-71
2023/05/14 07:41:33;;;;;;;12.27;7.72;;;16.80;71.30;;;;;;5025989;28;20048;-66
2023/05/14 07:43:59;;;;;;;13.45;7.13;;;16.80;71.40;;;;;;5009351;28;20041;-66
2023/05/14 07:46:25;;;;;;;12.05;6.95;;;16.90;71.80;;;;;;5025843;28;20418;-66
2023/05/14 07:48:51;;;;;;;12.10;7.05;;;17.00;71.80;;;;;;5026053;28;20056;-66
2023/05/14 07:51:16;;;;;;;13.90;7.18;;;17.20;71.90;;;;;;5008584;28;20045;-66
2023/05/14 07:53:42;;;;;;;11.10;6.70;;;17.40;71.20;;;;;;5025152;28;20560;-67
2023/05/14 07:56:08;;;;;;;14.32;6.75;;;17.60;70.60;;;;;;5025362;28;20033;-66
2023/05/14 07:58:34;;;;;;;10.95;6.93;;;17.80;70.60;;;;;;5025600;28;20143;-67
2023/05/14 08:01:02;;;;;;;11.82;6.43;;;18.00;70.60;;;;;;5021578;28;20116;-67
2023/05/14 08:03:28;;;;;;;12.30;6.43;;;18.20;70.00;;;;;;5021461;28;20077;-66
2023/05/14 08:05:55;;;;;;;15.02;6.55;;;18.40;68.40;;;;;;5023827;28;20080;-66
2023/05/14 08:08:20;;;;;;;12.20;6.93;;;18.50;67.70;;;;;;5024995;28;20053;-67
2023/05/14 08:10:46;;;;;;;10.88;6.57;;;18.60;67.30;;;;;;5021600;28;20050;-67
2023/05/14 08:13:12;;;;;;;11.57;5.90;;;18.80;67.60;;;;;;5025336;28;20121;-67
2023/05/14 08:15:37;;;;;;;10.27;5.82;;;18.80;66.30;;;;;;5026127;28;20030;-67
2023/05/14 08:18:03;;;;;;;11.98;6.43;;;18.90;66.80;;;;;;5024998;28;20044;-67
2023/05/14 08:20:29;;;;;;;11.25;5.45;;;19.00;66.80;;;;;;5025838;28;20050;-67
2023/05/14 08:22:56;;;;;;;9.85;5.05;;;19.20;66.50;;;;;;5024701;28;20052;-66
2023/05/14 08:25:23;;;;;;;12.25;6.05;;;19.40;66.20;;;;;;5024731;28;20527;-66
2023/05/14 08:27:49;;;;;;;8.98;5.57;;;19.60;65.70;;;;;;5025503;28;20122;-67
2023/05/14 08:30:15;;;;;;;9.60;5.38;;;19.80;64.50;;;;;;5026418;28;20038;-68
2023/05/14 08:32:41;;;;;;;9.80;5.40;;;20.00;64.00;;;;;;5024750;28;20489;-67
2023/05/14 08:35:07;;;;;;;9.07;5.28;;;20.20;63.60;;;;;;5041276;28;20053;-67
2023/05/14 08:37:33;;;;;;;12.00;6.03;;;20.30;62.60;;;;;;4992224;28;20045;-67
2023/05/14 08:39:59;;;;;;;10.85;5.32;;;20.50;62.50;;;;;;5025874;28;20049;-67
2023/05/14 08:42:27;;;;;;;10.70;5.93;;;20.70;61.90;;;;;;5025904;28;20489;-67
2023/05/14 08:45:02;;;;;;;8.48;5.00;;;20.90;61.20;;;;;;5020966;28;20056;-67
2023/05/14 08:47:29;;;;;;;7.38;4.85;;;21.00;60.20;;;;;;5021678;28;20052;-68
2023/05/14 08:50:01;;;;;;;9.05;5.68;;;21.20;60.10;;;;;;5023989;28;20452;-67
2023/05/14 08:52:27;;;;;;;11.68;5.50;;;21.40;59.20;;;;;;5019676;28;20037;-67
2023/05/14 08:54:53;;;;;;;10.27;5.47;;;21.40;58.30;;;;;;5019926;28;20505;-71
2023/05/14 08:57:20;;;;;;;8.27;4.90;;;21.50;58.10;;;;;;5021876;28;20053;-71
2023/05/14 08:59:46;;;;;;;11.85;5.18;;;21.50;57.70;;;;;;5023958;28;20045;-71
2023/05/14 09:02:15;;;;;;;10.32;5.13;;;21.70;58.30;;;;;;5006930;28;20033;-71
2023/05/14 09:04:41;;;;;;;7.93;5.18;;;21.70;58.40;;;;;;5016350;28;20049;-71
2023/05/14 09:07:07;;;;;;;10.98;5.35;;;21.90;57.60;;;;;;5006857;28;20115;-73
2023/05/14 09:09:34;;;;;;;8.77;5.22;;;21.90;56.70;;;;;;5025439;28;20040;-72
2023/05/14 09:12:00;;;;;;;9.38;4.38;;;22.00;57.20;;;;;;5025966;28;20396;-71
2023/05/14 09:14:26;;;;;;;7.70;4.25;;;22.10;57.40;;;;;;5006925;28;20560;-73
2023/05/14 09:16:51;;;;;;;8.77;5.25;;;22.20;57.10;;;;;;5023858;28;20120;-72
2023/05/14 09:19:17;;;;;;;8.30;5.28;;;22.30;55.80;;;;;;5009546;28;20042;-72
2023/05/14 09:21:48;;;;;;;7.15;4.78;;;22.40;56.00;;;;;;5023839;28;20025;-72
2023/05/14 09:24:22;;;;;;;8.82;4.95;;;22.50;55.90;;;;;;5022750;28;20113;-72
2023/05/14 09:26:53;;;;;;;9.65;4.50;;;22.50;55.90;;;;;;5012539;28;20130;-72
2023/05/14 09:29:19;;;;;;;9.85;5.10;;;22.70;56.10;;;;;;5023903;28;20123;-72
2023/05/14 09:31:45;;;;;;;10.73;5.22;;;22.80;55.90;;;;;;5024865;28;20053;-72
2023/05/14 09:34:22;;;;;;;7.55;4.20;;;22.90;55.10;;;;;;5009745;28;20057;-72
2023/05/14 09:36:47;;;;;;;10.45;4.90;;;23.00;53.10;;;;;;5008335;28;21385;-72
2023/05/14 09:39:13;;;;;;;8.52;4.65;;;23.00;54.00;;;;;;5023761;28;20049;-73
2023/05/14 09:41:38;;;;;;;7.50;4.38;;;23.10;54.20;;;;;;5024596;28;20413;-72
2023/05/14 09:44:04;;;;;;;7.90;4.57;;;23.10;53.10;;;;;;5009908;28;20056;-72
2023/05/14 09:46:30;;;;;;;7.35;4.55;;;23.20;52.90;;;;;;5009606;28;20077;-73
2023/05/14 09:48:57;;;;;;;8.27;5.03;;;23.30;52.40;;;;;;5019255;28;20116;-72
2023/05/14 09:51:23;;;;;;;8.57;4.53;;;23.40;51.50;;;;;;5024838;28;20571;-72
2023/05/14 09:53:51;;;;;;;9.52;5.25;;;23.40;51.20;;;;;;5023272;28;20121;-72
2023/05/14 09:56:17;;;;;;;9.20;4.18;;;23.40;51.20;;;;;;5027101;28;20037;-72
2023/05/14 09:58:43;;;;;;;9.18;4.18;;;23.50;51.10;;;;;;5008668;28;20052;-72
2023/05/14 10:01:09;;;;;;;9.07;4.72;;;23.60;50.60;;;;;;5023633;28;20046;-72
2023/05/14 10:03:35;;;;;;;10.63;4.30;;;23.70;50.60;;;;;;5027900;28;20360;-72
2023/05/14 10:06:05;;;;;;;8.95;4.70;;;23.70;50.90;;;;;;5024783;28;20146;-72
2023/05/14 10:08:34;;;;;;;8.82;4.55;;;23.80;51.10;;;;;;5024585;28;20350;-72
2023/05/14 10:11:04;;;;;;;9.40;4.43;;;23.90;50.80;;;;;;5025850;28;20045;-72
2023/05/14 10:13:39;;;;;;;8.82;4.20;;;24.00;50.20;;;;;;5025782;28;20120;-72
2023/05/14 10:16:25;;;;;;;7.35;4.25;;;24.10;49.30;;;;;;5027468;28;20227;-71
2023/05/14 10:18:55;;;;;;;8.13;5.13;;;24.10;49.20;;;;;;5022616;28;20042;-71
2023/05/14 10:21:22;;;;;;;8.23;4.88;;;24.20;49.30;;;;;;5022906;28;20045;-72
2023/05/14 10:23:49;;;;;;;8.43;4.03;;;24.20;48.50;;;;;;4997881;28;20038;-72
2023/05/14 10:26:15;;;;;;;8.25;4.05;;;24.30;49.30;;;;;;5018646;28;20045;-72
2023/05/14 10:28:42;;;;;;;8.15;4.43;;;24.40;48.50;;;;;;5003999;28;20516;-72
2023/05/14 10:31:09;;;;;;;7.97;3.92;;;24.50;47.90;;;;;;5031280;28;20048;-72
2023/05/14 10:33:49;;;;;;;9.38;4.72;;;24.60;48.40;;;;;;5029692;28;20052;-72
2023/05/14 10:36:17;;;;;;;10.27;5.68;;;24.70;46.60;;;;;;5033091;28;20034;-72
2023/05/14 10:38:43;;;;;;;6.20;3.67;;;24.70;45.90;;;;;;5033372;28;20128;-71
2023/05/14 10:41:20;;;;;;;10.95;4.15;;;24.80;46.40;;;;;;5033050;28;20120;-72
2023/05/14 10:43:46;;;;;;;8.65;5.05;;;24.80;47.30;;;;;;5032245;28;20044;-72
2023/05/14 10:46:13;;;;;;;9.32;4.10;;;24.80;45.40;;;;;;5022171;28;20042;-72
2023/05/14 10:48:42;;;;;;;7.45;3.58;;;24.80;44.80;;;;;;5028286;28;20564;-71
2023/05/14 10:51:11;;;;;;;9.55;4.32;;;24.70;45.70;;;;;;5033198;28;20455;-71
2023/05/14 10:53:39;;;;;;;7.68;4.43;;;24.70;46.70;;;;;;5015954;28;20045;-72
2023/05/14 10:56:10;;;;;;;6.07;3.28;;;24.80;46.10;;;;;;5033013;28;20041;-71
2023/05/14 10:58:38;;;;;;;7.15;3.72;;;24.80;47.30;;;;;;5029888;28;20046;-72
2023/05/14 11:01:05;;;;;;;7.78;3.88;;;24.80;47.20;;;;;;5013244;28;20050;-72
2023/05/14 11:03:37;;;;;;;8.88;3.72;;;24.80;47.40;;;;;;5013627;28;20041;-72
2023/05/14 11:06:04;;;;;;;5.97;3.25;;;24.80;47.00;;;;;;5023577;28;20041;-72
2023/05/14 11:08:31;;;;;;;8.13;3.97;;;24.90;46.50;;;;;;5028189;28;20374;-72
2023/05/14 11:10:57;;;;;;;7.82;3.85;;;24.80;45.80;;;;;;5012889;28;20054;-71
2023/05/14 11:13:24;;;;;;;5.47;3.67;;;24.80;45.10;;;;;;5013059;28;20184;-72
2023/05/14 11:15:50;;;;;;;7.60;3.78;;;24.90;46.10;;;;;;5012771;28;20440;-72
2023/05/14 11:18:32;;;;;;;6.00;3.67;;;24.90;47.20;;;;;;5013241;28;20045;-71
2023/05/14 11:21:01;;;;;;;7.93;3.88;;;24.90;46.20;;;;;;5012900;28;20033;-72
2023/05/14 11:23:28;;;;;;;10.27;3.88;;;24.90;45.80;;;;;;5016296;28;20187;-72
2023/05/14 11:25:55;;;;;;;8.57;3.72;;;24.90;46.40;;;;;;5032607;28;20045;-71
2023/05/14 11:28:25;;;;;;;7.10;3.80;;;24.90;46.80;;;;;;5030669;28;20057;-71
2023/05/14 11:30:52;;;;;;;7.53;3.20;;;24.90;44.30;;;;;;5012338;28;20478;-72
2023/05/14 11:33:19;;;;;;;7.28;3.35;;;24.80;42.60;;;;;;5005415;28;20136;-72
2023/05/14 11:35:45;;;;;;;5.72;3.08;;;24.70;42.50;;;;;;5017756;28;20425;-71
2023/05/14 11:38:19;;;;;;;7.30;3.25;;;24.60;42.60;;;;;;5028726;28;20131;-71
2023/05/14 11:40:55;;;;;;;8.95;4.43;;;24.60;41.10;;;;;;5015070;28;20033;-72
2023/05/14 11:43:22;;;;;;;5.90;3.70;;;24.50;41.70;;;;;;5012278;28;20149;-72
2023/05/14 11:45:52;;;;;;;6.15;3.05;;;24.40;42.70;;;;;;5012370;28;20425;-71
2023/05/14 11:48:23;;;;;;;7.47;3.28;;;24.50;43.80;;;;;;5012744;28;20045;-72
2023/05/14 11:50:51;;;;;;;9.02;4.20;;;24.50;44.10;;;;;;5012463;28;20046;-72
2023/05/14 11:53:24;;;;;;;7.72;4.00;;;24.50;44.00;;;;;;5012051;28;20511;-71
2023/05/14 11:55:53;;;;;;;7.75;3.97;;;24.50;43.50;;;;;;5011905;28;20038;-71
2023/05/14 11:58:19;;;;;;;7.75;3.47;;;24.40;42.90;;;;;;4998946;28;20049;-71
2023/05/14 12:00:46;;;;;;;6.45;3.90;;;24.40;43.50;;;;;;5031071;28;20048;-72
2023/05/14 12:03:12;;;;;;;6.07;3.30;;;24.40;43.90;;;;;;5011223;28;20044;-72
2023/05/14 12:05:38;;;;;;;6.88;3.33;;;24.40;43.00;;;;;;5011628;28;20034;-72
2023/05/14 12:08:22;;;;;;;6.53;3.38;;;24.40;43.70;;;;;;5023316;28;20436;-72
2023/05/14 12:10:48;;;;;;;7.55;3.75;;;24.50;43.10;;;;;;5011466;28;20362;-71
2023/05/14 12:13:17;;;;;;;5.20;3.05;;;24.40;44.00;;;;;;5031842;28;20057;-71
2023/05/14 12:16:01;;;;;;;6.00;3.22;;;24.50;44.60;;;;;;5030727;28;20496;-72
2023/05/14 12:18:29;;;;;;;6.88;3.65;;;24.60;43.50;;;;;;5017686;28;20045;-72
2023/05/14 12:21:00;;;;;;;9.35;3.88;;;24.60;42.70;;;;;;5011783;28;20041;-72
2023/05/14 12:23:27;;;;;;;7.03;2.85;;;24.60;43.00;;;;;;5012160;28;20349;-72
2023/05/14 12:25:53;;;;;;;8.77;4.15;;;24.50;43.00;;;;;;5011826;28;20045;-72
2023/05/14 12:28:19;;;;;;;6.78;3.33;;;24.50;42.10;;;;;;5023510;28;20048;-72
2023/05/14 12:30:55;;;;;;;8.80;3.55;;;24.50;41.10;;;;;;5014318;28;20049;-72
2023/05/14 12:33:22;;;;;;;4.63;2.83;;;24.50;40.60;;;;;;5019129;28;20049;-72
2023/05/14 12:36:00;;;;;;;5.38;2.95;;;24.50;41.20;;;;;;5011842;28;20065;-73
2023/05/14 12:38:26;;;;;;;5.13;2.80;;;24.50;41.20;;;;;;5011570;28;20099;-73
2023/05/14 12:40:52;;;;;;;5.68;3.03;;;24.50;40.10;;;;;;5015204;28;20394;-72
2023/05/14 12:43:18;;;;;;;5.43;3.67;;;24.50;40.00;;;;;;5018107;28;20041;-73